createdAt,value
2022-12-23T00:03:35.186Z,8.19
2022-12-23T00:08:37.155Z,8.16
2022-12-23T00:13:57.456Z,8.18
2022-12-23T00:18:59.005Z,8.24
2022-12-23T00:24:00.707Z,8.27
2022-12-23T00:29:02.365Z,8.21
2022-12-23T00:34:04.034Z,8.18
2022-12-23T00:39:24.351Z,8.12
2022-12-23T00:44:26.532Z,8.24
2022-12-23T00:49:43.220Z,8.28
2022-12-23T00:54:44.913Z,8.30
2022-12-23T00:59:46.587Z,8.29
2022-12-23T01:05:06.714Z,8.27
2022-12-23T01:10:08.898Z,8.30
2022-12-23T01:15:10.723Z,8.26
2022-12-23T01:20:12.906Z,8.26
2022-12-23T01:25:14.727Z,8.20
2022-12-23T01:30:16.590Z,8.20
2022-12-23T01:35:18.268Z,8.15
2022-12-23T01:40:20.071Z,8.18
2022-12-23T01:45:31.043Z,8.18
2022-12-23T01:50:34.657Z,8.26
2022-12-23T01:55:43.759Z,8.30
2022-12-23T02:01:04.298Z,8.36
2022-12-23T02:06:25.096Z,8.39
2022-12-23T02:11:53.603Z,8.32
2022-12-23T02:17:14.819Z,8.33
2022-12-23T02:22:36.698Z,8.32
2022-12-23T02:28:10.750Z,8.28
2022-12-23T02:33:23.937Z,8.30
2022-12-23T02:38:50.624Z,8.31
2022-12-23T02:44:02.540Z,8.31
2022-12-23T02:49:16.240Z,8.35
2022-12-23T02:54:24.830Z,8.32
2022-12-23T02:59:30.552Z,8.28
2022-12-23T03:04:32.276Z,8.27
2022-12-23T03:10:09.770Z,8.25
2022-12-23T03:15:39.091Z,8.28
2022-12-23T03:21:03.661Z,8.29
2022-12-23T03:26:19.666Z,8.20
2022-12-23T03:31:27.019Z,8.23
2022-12-23T03:36:33.342Z,8.27
2022-12-23T03:41:40.882Z,8.21
2022-12-23T03:47:15.463Z,8.24
2022-12-23T03:52:22.272Z,8.25
2022-12-23T03:57:31.644Z,8.20
2022-12-23T04:02:33.374Z,8.21
2022-12-23T04:07:39.426Z,8.14
2022-12-23T04:12:41.371Z,8.17
2022-12-23T04:17:42.982Z,8.23
2022-12-23T04:22:44.686Z,8.20
2022-12-23T04:27:46.578Z,8.20
2022-12-23T04:32:48.168Z,8.21
2022-12-23T04:37:49.977Z,8.25
2022-12-23T04:42:51.600Z,8.18
2022-12-23T04:47:54.562Z,8.23
2022-12-23T04:52:56.287Z,8.24
2022-12-23T04:57:58.000Z,8.26
2022-12-23T05:02:59.741Z,8.13
2022-12-23T05:08:06.727Z,8.22
2022-12-23T05:13:08.385Z,8.15
2022-12-23T05:18:09.972Z,8.15
2022-12-23T05:23:11.994Z,8.18
2022-12-23T05:28:13.955Z,8.16
2022-12-23T05:33:15.882Z,8.21
2022-12-23T05:38:18.156Z,8.20
2022-12-23T05:43:19.817Z,8.19
2022-12-23T05:48:21.960Z,8.12
2022-12-23T05:53:24.609Z,8.19
2022-12-23T05:58:28.078Z,8.16
2022-12-23T06:03:30.116Z,8.12
2022-12-23T06:08:32.163Z,8.08
2022-12-23T06:13:33.842Z,8.13
2022-12-23T06:18:35.443Z,8.14
2022-12-23T06:23:37.874Z,8.12
2022-12-23T06:28:39.488Z,8.02
2022-12-23T06:33:41.153Z,8.08
2022-12-23T06:38:42.810Z,8.04
2022-12-23T06:43:44.457Z,8.05
2022-12-23T06:48:46.143Z,8.02
2022-12-23T06:53:47.793Z,8.01
2022-12-23T06:58:49.477Z,8.04
2022-12-23T07:03:51.114Z,8.13
2022-12-23T07:08:52.859Z,8.12
2022-12-23T07:13:54.570Z,8.12
2022-12-23T07:18:56.229Z,8.17
2022-12-23T07:23:57.930Z,8.05
2022-12-23T07:28:59.517Z,8.10
2022-12-23T07:34:01.188Z,8.08
2022-12-23T07:39:02.826Z,8.09
2022-12-23T07:44:04.568Z,7.98
2022-12-23T07:49:06.238Z,8.05
2022-12-23T07:54:07.879Z,8.06
2022-12-23T07:59:09.525Z,8.02
2022-12-23T08:04:11.112Z,8.01
2022-12-23T08:09:12.834Z,7.97
2022-12-23T08:14:14.497Z,7.99
2022-12-23T08:19:16.290Z,7.97
2022-12-23T08:24:17.919Z,7.89
2022-12-23T08:29:19.531Z,7.95
2022-12-23T08:34:21.171Z,7.99
2022-12-23T08:39:22.895Z,8.06
2022-12-23T08:44:27.877Z,8.08
2022-12-23T08:49:29.757Z,8.05
2022-12-23T08:54:31.458Z,8.07
2022-12-23T08:59:33.091Z,8.02
2022-12-23T09:04:36.540Z,7.91
2022-12-23T09:09:38.544Z,7.89
2022-12-23T09:14:40.359Z,7.82
2022-12-23T09:19:44.798Z,7.77
2022-12-23T09:24:49.810Z,7.87
2022-12-23T09:29:51.579Z,7.92
2022-12-23T09:34:53.187Z,7.96
2022-12-23T09:39:55.556Z,7.90
2022-12-23T09:45:40.366Z,7.98
2022-12-23T09:50:43.498Z,7.97
2022-12-23T09:55:51.035Z,8.01
2022-12-23T10:01:01.870Z,7.99
2022-12-23T10:06:09.498Z,7.99
2022-12-23T10:11:34.608Z,8.08
2022-12-23T10:16:42.804Z,8.05
2022-12-23T10:21:52.091Z,8.07
2022-12-23T10:26:53.759Z,8.06
2022-12-23T10:32:11.541Z,8.04
2022-12-23T10:37:31.850Z,8.04
2022-12-23T10:42:51.721Z,8.05
2022-12-23T10:48:14.427Z,8.06
2022-12-23T10:53:44.716Z,8.08
2022-12-23T10:58:51.798Z,8.03
2022-12-23T11:03:59.193Z,7.98
2022-12-23T11:09:02.695Z,7.97
2022-12-23T11:14:04.371Z,7.99
2022-12-23T11:19:14.569Z,8.05
2022-12-23T11:24:18.577Z,8.11
2022-12-23T11:29:28.055Z,8.06
2022-12-23T11:34:37.356Z,8.06
2022-12-23T11:39:39.415Z,8.04
2022-12-23T11:44:48.838Z,7.96
2022-12-23T11:50:03.209Z,8.03
2022-12-23T11:55:06.974Z,7.98
2022-12-23T12:00:21.027Z,8.01
2022-12-23T12:05:32.795Z,8.02
2022-12-23T12:10:37.403Z,8.03
2022-12-23T12:16:09.194Z,8.06
2022-12-23T12:21:15.223Z,8.02
2022-12-23T12:26:27.141Z,8.05
2022-12-23T12:31:50.758Z,8.10
2022-12-23T12:37:03.307Z,8.14
2022-12-23T12:42:16.192Z,8.14
2022-12-23T12:47:53.376Z,8.16
2022-12-23T12:53:02.690Z,8.26
2022-12-23T12:58:17.879Z,8.22
2022-12-23T13:03:50.202Z,8.28
2022-12-23T13:09:10.597Z,8.19
2022-12-23T13:14:26.323Z,8.23
2022-12-23T13:19:50.352Z,8.18
2022-12-23T13:25:14.040Z,8.15
2022-12-23T13:30:23.786Z,8.20
2022-12-23T13:36:10.726Z,8.20
2022-12-23T13:41:15.301Z,8.23
2022-12-23T13:46:41.492Z,8.25
2022-12-23T13:52:01.969Z,8.30
2022-12-23T13:57:15.813Z,8.28
2022-12-23T14:02:53.222Z,8.27
2022-12-23T14:07:55.058Z,8.26
2022-12-23T14:13:07.310Z,8.25
2022-12-23T14:18:37.047Z,8.27
2022-12-23T14:23:50.098Z,8.23
2022-12-23T14:29:24.613Z,8.21
2022-12-23T14:34:30.561Z,8.20
2022-12-23T14:39:33.820Z,8.19
2022-12-23T14:44:35.941Z,8.24
2022-12-23T14:49:45.892Z,8.28
2022-12-23T14:55:06.368Z,8.39
2022-12-23T15:00:10.360Z,8.41
2022-12-23T15:05:13.153Z,8.47
2022-12-23T15:10:17.554Z,8.44
2022-12-23T15:15:23.309Z,8.41
2022-12-23T15:20:26.077Z,8.41
2022-12-23T15:26:06.172Z,8.36
2022-12-23T15:31:26.470Z,8.36
2022-12-23T15:36:35.757Z,8.38
2022-12-23T15:41:45.211Z,8.39
2022-12-23T15:46:47.247Z,8.39
2022-12-23T15:52:08.853Z,8.38
2022-12-23T15:57:51.399Z,8.41
2022-12-23T16:03:43.188Z,8.41
2022-12-23T16:08:45.831Z,8.34
2022-12-23T16:13:58.427Z,8.34
2022-12-23T16:19:02.354Z,8.38
2022-12-23T16:24:11.189Z,8.29
2022-12-23T16:29:15.000Z,8.23
2022-12-23T16:34:16.923Z,8.24
2022-12-23T16:39:23.168Z,8.30
2022-12-23T16:44:24.997Z,8.46
2022-12-23T16:49:33.443Z,8.47
2022-12-23T16:54:35.822Z,8.36
2022-12-23T16:59:41.070Z,8.27
2022-12-23T17:11:24.250Z,8.24
2022-12-23T17:16:26.369Z,8.28
2022-12-23T17:21:36.873Z,8.34
2022-12-23T17:26:39.418Z,8.33
2022-12-23T17:31:43.092Z,8.23
2022-12-23T17:36:49.980Z,8.29
2022-12-23T17:41:52.544Z,8.26
2022-12-23T17:46:54.584Z,8.26
2022-12-23T17:51:56.332Z,8.31
2022-12-23T17:56:58.306Z,8.29
2022-12-23T18:02:03.093Z,8.29
2022-12-23T18:07:06.309Z,8.36
2022-12-23T18:12:24.973Z,8.38
2022-12-23T18:17:27.750Z,8.34
2022-12-23T18:23:11.129Z,8.39
2022-12-23T18:28:13.477Z,8.45
2022-12-23T18:33:17.748Z,8.51
2022-12-23T18:38:19.502Z,8.53
2022-12-23T18:43:23.308Z,8.50
2022-12-23T18:48:37.262Z,8.51
2022-12-23T18:54:06.637Z,8.51
2022-12-23T18:59:29.591Z,8.53
2022-12-23T19:04:32.120Z,8.51
2022-12-23T19:09:34.104Z,8.50
2022-12-23T19:14:38.217Z,8.52
2022-12-23T19:19:40.026Z,8.47
2022-12-23T19:25:03.871Z,8.54
2022-12-23T19:30:10.753Z,8.56
2022-12-23T19:35:16.444Z,8.57
2022-12-23T19:40:18.930Z,8.61
2022-12-23T19:58:33.133Z,8.70
2022-12-23T20:03:38.201Z,8.69
2022-12-23T20:08:40.771Z,8.67
2022-12-23T20:14:21.718Z,8.68
2022-12-23T20:19:23.485Z,8.66
2022-12-23T20:24:25.426Z,8.59
2022-12-23T20:29:27.337Z,8.66
2022-12-23T20:34:33.209Z,8.62
2022-12-23T20:39:38.552Z,8.63
2022-12-23T20:44:40.442Z,8.67
2022-12-23T20:49:42.337Z,8.64
2022-12-23T20:54:47.543Z,8.59
2022-12-23T20:59:51.704Z,8.58
2022-12-23T21:04:55.917Z,8.53
2022-12-23T21:16:38.174Z,8.50
2022-12-23T21:21:40.758Z,8.51
2022-12-23T21:26:55.730Z,8.51
2022-12-23T21:31:59.429Z,8.49
2022-12-23T21:37:01.354Z,8.50
2022-12-23T21:42:04.513Z,8.46
2022-12-23T21:47:06.304Z,8.45
2022-12-23T21:52:08.250Z,8.46
2022-12-23T21:57:10.028Z,8.34
2022-12-23T22:02:16.698Z,8.34
2022-12-23T22:07:18.487Z,8.39
2022-12-23T22:12:20.244Z,8.38
2022-12-23T22:17:22.032Z,8.47
2022-12-23T22:22:26.028Z,8.33
2022-12-23T22:27:27.762Z,8.30
2022-12-23T22:32:29.727Z,8.35
2022-12-23T22:37:32.148Z,8.38
2022-12-23T22:42:34.182Z,8.36
2022-12-23T22:47:36.038Z,8.38
2022-12-23T22:52:37.908Z,8.42
2022-12-23T22:57:39.725Z,8.41
2022-12-23T23:02:41.491Z,8.41
2022-12-23T23:07:43.403Z,8.47
2022-12-23T23:12:45.164Z,8.51
2022-12-23T23:17:47.212Z,8.42
2022-12-23T23:22:50.406Z,8.36
2022-12-23T23:27:52.171Z,8.44
2022-12-23T23:32:53.997Z,8.37
2022-12-23T23:37:56.646Z,8.41
2022-12-23T23:42:58.447Z,8.39
2022-12-23T23:48:00.214Z,8.39
2022-12-23T23:53:02.057Z,8.42
2022-12-23T23:58:04.823Z,8.46
